sensor_id;sensor_type;location;lat;lon;timestamp;P1;durP1;ratioP1;P2;durP2;ratioP2
28988;SDS011;16089;59.952;10.818;2024-01-15T00:00:51;1.10;;;0.20;;
28988;SDS011;16089;59.952;10.818;2024-01-15T00:03:18;0.20;;;0.20;;
28988;SDS011;16089;59.952;10.818;2024-01-15T00:05:44;0.28;;;0.20;;
28988;SDS011;16089;59.952;10.818;2024-01-15T00:08:12;0.75;;;0.38;;
28988;SDS011;16089;59.952;10.818;2024-01-15T00:10:39;0.47;;;0.30;;
28988;SDS011;16089;59.952;10.818;2024-01-15T00:13:06;0.82;;;0.30;;
28988;SDS011;16089;59.952;10.818;2024-01-15T00:15:32;0.50;;;0.30;;
28988;SDS011;16089;59.952;10.818;2024-01-15T00:17:59;0.50;;;0.20;;
28988;SDS011;16089;59.952;10.818;2024-01-15T00:20:25;0.63;;;0.20;;
28988;SDS011;16089;59.952;10.818;2024-01-15T00:22:52;0.52;;;0.30;;
28988;SDS011;16089;59.952;10.818;2024-01-15T00:25:20;0.50;;;0.22;;
28988;SDS011;16089;59.952;10.818;2024-01-15T00:27:47;0.80;;;0.28;;
28988;SDS011;16089;59.952;10.818;2024-01-15T00:30:14;0.75;;;0.30;;
28988;SDS011;16089;59.952;10.818;2024-01-15T00:32:40;0.47;;;0.20;;
28988;SDS011;16089;59.952;10.818;2024-01-15T00:35:07;0.43;;;0.30;;
28988;SDS011;16089;59.952;10.818;2024-01-15T00:37:33;0.28;;;0.20;;
28988;SDS011;16089;59.952;10.818;2024-01-15T00:40:00;0.85;;;0.35;;
28988;SDS011;16089;59.952;10.818;2024-01-15T00:42:28;0.43;;;0.30;;
28988;SDS011;16089;59.952;10.818;2024-01-15T00:44:54;0.38;;;0.20;;
28988;SDS011;16089;59.952;10.818;2024-01-15T00:47:21;0.80;;;0.30;;
28988;SDS011;16089;59.952;10.818;2024-01-15T00:49:47;0.60;;;0.32;;
28988;SDS011;16089;59.952;10.818;2024-01-15T00:52:14;0.35;;;0.20;;
28988;SDS011;16089;59.952;10.818;2024-01-15T00:54:40;0.20;;;0.20;;
28988;SDS011;16089;59.952;10.818;2024-01-15T00:57:07;1.85;;;0.30;;
28988;SDS011;16089;59.952;10.818;2024-01-15T00:59:35;0.30;;;0.30;;
28988;SDS011;16089;59.952;10.818;2024-01-15T01:02:01;0.85;;;0.30;;
28988;SDS011;16089;59.952;10.818;2024-01-15T01:04:28;0.77;;;0.30;;
28988;SDS011;16089;59.952;10.818;2024-01-15T01:06:55;2.63;;;0.30;;
28988;SDS011;16089;59.952;10.818;2024-01-15T01:09:21;0.60;;;0.30;;
28988;SDS011;16089;59.952;10.818;2024-01-15T01:11:48;0.85;;;0.30;;
28988;SDS011;16089;59.952;10.818;2024-01-15T01:14:14;0.25;;;0.20;;
28988;SDS011;16089;59.952;10.818;2024-01-15T01:16:42;0.20;;;0.20;;
28988;SDS011;16089;59.952;10.818;2024-01-15T01:19:08;0.20;;;0.20;;
28988;SDS011;16089;59.952;10.818;2024-01-15T01:21:35;0.20;;;0.20;;
28988;SDS011;16089;59.952;10.818;2024-01-15T01:24:01;0.60;;;0.30;;
28988;SDS011;16089;59.952;10.818;2024-01-15T01:26:28;0.52;;;0.30;;
28988;SDS011;16089;59.952;10.818;2024-01-15T01:28:55;0.38;;;0.20;;
28988;SDS011;16089;59.952;10.818;2024-01-15T01:31:22;0.68;;;0.20;;
28988;SDS011;16089;59.952;10.818;2024-01-15T01:33:51;0.30;;;0.25;;
28988;SDS011;16089;59.952;10.818;2024-01-15T01:36:17;0.38;;;0.20;;
28988;SDS011;16089;59.952;10.818;2024-01-15T01:38:44;0.32;;;0.20;;
28988;SDS011;16089;59.952;10.818;2024-01-15T01:41:10;0.55;;;0.20;;
28988;SDS011;16089;59.952;10.818;2024-01-15T01:43:37;0.30;;;0.20;;
28988;SDS011;16089;59.952;10.818;2024-01-15T01:49:07;0.40;;;0.20;;
28988;SDS011;16089;59.952;10.818;2024-01-15T01:51:34;0.25;;;0.20;;
28988;SDS011;16089;59.952;10.818;2024-01-15T01:54:02;0.55;;;0.20;;
28988;SDS011;16089;59.952;10.818;2024-01-15T01:56:29;0.45;;;0.28;;
28988;SDS011;16089;59.952;10.818;2024-01-15T01:58:56;0.20;;;0.20;;
28988;SDS011;16089;59.952;10.818;2024-01-15T02:01:23;0.10;;;0.10;;
28988;SDS011;16089;59.952;10.818;2024-01-15T02:03:49;0.28;;;0.28;;
28988;SDS011;16089;59.952;10.818;2024-01-15T02:06:17;1.00;;;0.20;;
28988;SDS011;16089;59.952;10.818;2024-01-15T02:08:44;0.93;;;0.35;;
28988;SDS011;16089;59.952;10.818;2024-01-15T02:11:11;0.38;;;0.30;;
28988;SDS011;16089;59.952;10.818;2024-01-15T02:13:38;0.28;;;0.20;;
28988;SDS011;16089;59.952;10.818;2024-01-15T02:16:05;0.20;;;0.20;;
28988;SDS011;16089;59.952;10.818;2024-01-15T02:18:38;0.20;;;0.20;;
28988;SDS011;16089;59.952;10.818;2024-01-15T02:21:05;0.25;;;0.13;;
28988;SDS011;16089;59.952;10.818;2024-01-15T02:23:33;1.27;;;0.20;;
28988;SDS011;16089;59.952;10.818;2024-01-15T02:26:01;0.20;;;0.20;;
28988;SDS011;16089;59.952;10.818;2024-01-15T02:28:27;0.20;;;0.20;;
28988;SDS011;16089;59.952;10.818;2024-01-15T02:30:54;0.30;;;0.20;;
28988;SDS011;16089;59.952;10.818;2024-01-15T02:33:22;0.57;;;0.30;;
28988;SDS011;16089;59.952;10.818;2024-01-15T02:35:48;0.35;;;0.20;;
28988;SDS011;16089;59.952;10.818;2024-01-15T02:38:15;0.17;;;0.17;;
28988;SDS011;16089;59.952;10.818;2024-01-15T02:40:43;0.30;;;0.20;;
28988;SDS011;16089;59.952;10.818;2024-01-15T02:43:10;0.35;;;0.20;;
28988;SDS011;16089;59.952;10.818;2024-01-15T02:45:37;0.10;;;0.10;;
28988;SDS011;16089;59.952;10.818;2024-01-15T02:48:03;0.22;;;0.20;;
28988;SDS011;16089;59.952;10.818;2024-01-15T02:50:30;0.38;;;0.20;;
28988;SDS011;16089;59.952;10.818;2024-01-15T02:52:57;0.45;;;0.28;;
28988;SDS011;16089;59.952;10.818;2024-01-15T02:55:23;0.25;;;0.20;;
28988;SDS011;16089;59.952;10.818;2024-01-15T02:57:51;0.40;;;0.22;;
28988;SDS011;16089;59.952;10.818;2024-01-15T03:00:18;0.20;;;0.20;;
28988;SDS011;16089;59.952;10.818;2024-01-15T03:02:44;0.38;;;0.20;;
28988;SDS011;16089;59.952;10.818;2024-01-15T03:05:11;0.47;;;0.20;;
28988;SDS011;16089;59.952;10.818;2024-01-15T03:07:37;0.40;;;0.20;;
28988;SDS011;16089;59.952;10.818;2024-01-15T03:10:04;0.20;;;0.20;;
28988;SDS011;16089;59.952;10.818;2024-01-15T03:12:31;0.68;;;0.30;;
28988;SDS011;16089;59.952;10.818;2024-01-15T03:14:59;0.20;;;0.20;;
28988;SDS011;16089;59.952;10.818;2024-01-15T03:17:26;0.40;;;0.28;;
28988;SDS011;16089;59.952;10.818;2024-01-15T03:19:52;0.60;;;0.28;;
28988;SDS011;16089;59.952;10.818;2024-01-15T03:22:19;0.98;;;0.30;;
28988;SDS011;16089;59.952;10.818;2024-01-15T03:24:45;1.65;;;0.30;;
28988;SDS011;16089;59.952;10.818;2024-01-15T03:27:12;1.08;;;0.30;;
28988;SDS011;16089;59.952;10.818;2024-01-15T03:29:39;0.35;;;0.30;;
28988;SDS011;16089;59.952;10.818;2024-01-15T03:32:07;0.57;;;0.30;;
28988;SDS011;16089;59.952;10.818;2024-01-15T03:34:33;0.30;;;0.30;;
28988;SDS011;16089;59.952;10.818;2024-01-15T03:37:00;0.55;;;0.30;;
28988;SDS011;16089;59.952;10.818;2024-01-15T03:39:26;0.38;;;0.20;;
28988;SDS011;16089;59.952;10.818;2024-01-15T03:41:53;0.45;;;0.30;;
28988;SDS011;16089;59.952;10.818;2024-01-15T03:44:19;0.35;;;0.20;;
28988;SDS011;16089;59.952;10.818;2024-01-15T03:46:46;1.35;;;0.30;;
28988;SDS011;16089;59.952;10.818;2024-01-15T03:49:14;0.63;;;0.30;;
28988;SDS011;16089;59.952;10.818;2024-01-15T03:51:40;0.65;;;0.30;;
28988;SDS011;16089;59.952;10.818;2024-01-15T03:54:07;0.25;;;0.20;;
28988;SDS011;16089;59.952;10.818;2024-01-15T03:56:33;1.17;;;0.40;;
28988;SDS011;16089;59.952;10.818;2024-01-15T03:59:00;0.60;;;0.30;;
28988;SDS011;16089;59.952;10.818;2024-01-15T04:01:27;1.95;;;0.40;;
28988;SDS011;16089;59.952;10.818;2024-01-15T04:03:54;1.02;;;0.63;;
28988;SDS011;16089;59.952;10.818;2024-01-15T04:06:22;3.42;;;1.25;;
28988;SDS011;16089;59.952;10.818;2024-01-15T04:08:48;2.38;;;1.20;;
28988;SDS011;16089;59.952;10.818;2024-01-15T04:11:15;4.28;;;2.40;;
28988;SDS011;16089;59.952;10.818;2024-01-15T04:13:41;5.05;;;2.45;;
28988;SDS011;16089;59.952;10.818;2024-01-15T04:16:08;4.00;;;2.20;;
28988;SDS011;16089;59.952;10.818;2024-01-15T04:18:34;4.93;;;2.28;;
28988;SDS011;16089;59.952;10.818;2024-01-15T04:21:01;4.57;;;2.65;;
28988;SDS011;16089;59.952;10.818;2024-01-15T04:23:31;4.07;;;2.05;;
28988;SDS011;16089;59.952;10.818;2024-01-15T04:25:57;5.05;;;3.10;;
28988;SDS011;16089;59.952;10.818;2024-01-15T04:28:24;9.63;;;3.80;;
28988;SDS011;16089;59.952;10.818;2024-01-15T04:30:50;6.63;;;3.05;;
28988;SDS011;16089;59.952;10.818;2024-01-15T04:33:17;6.65;;;3.22;;
28988;SDS011;16089;59.952;10.818;2024-01-15T04:35:43;7.65;;;3.20;;
28988;SDS011;16089;59.952;10.818;2024-01-15T04:38:10;14.48;;;5.90;;
28988;SDS011;16089;59.952;10.818;2024-01-15T04:40:38;16.92;;;7.30;;
28988;SDS011;16089;59.952;10.818;2024-01-15T04:43:04;5.55;;;3.15;;
28988;SDS011;16089;59.952;10.818;2024-01-15T04:45:31;15.80;;;4.82;;
28988;SDS011;16089;59.952;10.818;2024-01-15T04:47:57;11.95;;;3.13;;
28988;SDS011;16089;59.952;10.818;2024-01-15T04:50:24;7.07;;;2.38;;
28988;SDS011;16089;59.952;10.818;2024-01-15T04:52:50;4.40;;;1.27;;
28988;SDS011;16089;59.952;10.818;2024-01-15T04:55:17;7.53;;;2.90;;
28988;SDS011;16089;59.952;10.818;2024-01-15T04:57:45;5.95;;;2.00;;
28988;SDS011;16089;59.952;10.818;2024-01-15T05:00:12;4.07;;;0.90;;
28988;SDS011;16089;59.952;10.818;2024-01-15T05:02:39;6.22;;;2.53;;
28988;SDS011;16089;59.952;10.818;2024-01-15T05:05:06;8.10;;;4.35;;
28988;SDS011;16089;59.952;10.818;2024-01-15T05:07:32;14.57;;;4.07;;
28988;SDS011;16089;59.952;10.818;2024-01-15T05:09:59;4.15;;;2.03;;
28988;SDS011;16089;59.952;10.818;2024-01-15T05:12:26;6.57;;;2.30;;
28988;SDS011;16089;59.952;10.818;2024-01-15T05:14:54;9.65;;;4.22;;
28988;SDS011;16089;59.952;10.818;2024-01-15T05:17:20;5.28;;;2.17;;
28988;SDS011;16089;59.952;10.818;2024-01-15T05:19:47;4.57;;;2.10;;
28988;SDS011;16089;59.952;10.818;2024-01-15T05:22:13;3.75;;;0.93;;
28988;SDS011;16089;59.952;10.818;2024-01-15T05:24:40;2.55;;;1.00;;
28988;SDS011;16089;59.952;10.818;2024-01-15T05:27:07;9.18;;;3.13;;
28988;SDS011;16089;59.952;10.818;2024-01-15T05:29:33;5.80;;;2.03;;
28988;SDS011;16089;59.952;10.818;2024-01-15T05:32:01;4.88;;;2.83;;
28988;SDS011;16089;59.952;10.818;2024-01-15T05:34:27;6.57;;;2.92;;
28988;SDS011;16089;59.952;10.818;2024-01-15T05:36:54;4.55;;;1.40;;
28988;SDS011;16089;59.952;10.818;2024-01-15T05:39:20;4.82;;;2.17;;
28988;SDS011;16089;59.952;10.818;2024-01-15T05:41:47;5.10;;;2.15;;
28988;SDS011;16089;59.952;10.818;2024-01-15T05:44:13;7.05;;;2.92;;
28988;SDS011;16089;59.952;10.818;2024-01-15T05:46:40;4.40;;;1.30;;
28988;SDS011;16089;59.952;10.818;2024-01-15T05:49:08;0.82;;;0.45;;
28988;SDS011;16089;59.952;10.818;2024-01-15T05:51:34;3.15;;;0.70;;
28988;SDS011;16089;59.952;10.818;2024-01-15T05:54:01;5.18;;;0.50;;
28988;SDS011;16089;59.952;10.818;2024-01-15T05:56:27;1.33;;;0.65;;
28988;SDS011;16089;59.952;10.818;2024-01-15T05:58:54;1.88;;;0.50;;
28988;SDS011;16089;59.952;10.818;2024-01-15T06:01:21;0.47;;;0.32;;
28988;SDS011;16089;59.952;10.818;2024-01-15T06:03:47;1.25;;;0.40;;
28988;SDS011;16089;59.952;10.818;2024-01-15T06:06:15;1.17;;;0.50;;
28988;SDS011;16089;59.952;10.818;2024-01-15T06:08:41;0.52;;;0.30;;
28988;SDS011;16089;59.952;10.818;2024-01-15T06:11:08;7.22;;;0.60;;
28988;SDS011;16089;59.952;10.818;2024-01-15T06:13:34;1.63;;;0.60;;
28988;SDS011;16089;59.952;10.818;2024-01-15T06:16:01;1.95;;;0.60;;
28988;SDS011;16089;59.952;10.818;2024-01-15T06:18:28;0.85;;;0.40;;
28988;SDS011;16089;59.952;10.818;2024-01-15T06:20:54;0.90;;;0.40;;
28988;SDS011;16089;59.952;10.818;2024-01-15T06:23:22;2.38;;;0.40;;
28988;SDS011;16089;59.952;10.818;2024-01-15T06:25:49;0.70;;;0.47;;
28988;SDS011;16089;59.952;10.818;2024-01-15T06:28:15;0.30;;;0.28;;
28988;SDS011;16089;59.952;10.818;2024-01-15T06:30:42;0.82;;;0.30;;
28988;SDS011;16089;59.952;10.818;2024-01-15T06:33:08;1.55;;;0.32;;
28988;SDS011;16089;59.952;10.818;2024-01-15T06:35:35;2.22;;;0.50;;
28988;SDS011;16089;59.952;10.818;2024-01-15T06:38:01;1.05;;;0.43;;
28988;SDS011;16089;59.952;10.818;2024-01-15T06:40:29;0.75;;;0.30;;
28988;SDS011;16089;59.952;10.818;2024-01-15T06:42:56;1.23;;;0.50;;
28988;SDS011;16089;59.952;10.818;2024-01-15T06:45:22;1.40;;;0.60;;
28988;SDS011;16089;59.952;10.818;2024-01-15T06:47:52;1.33;;;0.55;;
28988;SDS011;16089;59.952;10.818;2024-01-15T06:50:18;4.72;;;0.82;;
28988;SDS011;16089;59.952;10.818;2024-01-15T06:52:45;0.35;;;0.20;;
28988;SDS011;16089;59.952;10.818;2024-01-15T06:55:11;1.05;;;0.47;;
28988;SDS011;16089;59.952;10.818;2024-01-15T06:57:39;1.92;;;0.57;;
28988;SDS011;16089;59.952;10.818;2024-01-15T07:00:06;0.70;;;0.30;;
28988;SDS011;16089;59.952;10.818;2024-01-15T07:02:34;2.25;;;0.40;;
28988;SDS011;16089;59.952;10.818;2024-01-15T07:05:00;0.70;;;0.40;;
28988;SDS011;16089;59.952;10.818;2024-01-15T07:07:30;3.25;;;0.80;;
28988;SDS011;16089;59.952;10.818;2024-01-15T07:09:56;0.75;;;0.40;;
28988;SDS011;16089;59.952;10.818;2024-01-15T07:12:23;1.48;;;0.60;;
28988;SDS011;16089;59.952;10.818;2024-01-15T07:14:51;1.00;;;0.45;;
28988;SDS011;16089;59.952;10.818;2024-01-15T07:17:17;1.55;;;0.50;;
28988;SDS011;16089;59.952;10.818;2024-01-15T07:19:44;0.68;;;0.40;;
28988;SDS011;16089;59.952;10.818;2024-01-15T07:22:10;1.08;;;0.50;;
28988;SDS011;16089;59.952;10.818;2024-01-15T07:24:37;0.75;;;0.38;;
28988;SDS011;16089;59.952;10.818;2024-01-15T07:27:03;3.58;;;0.50;;
28988;SDS011;16089;59.952;10.818;2024-01-15T07:29:30;0.68;;;0.35;;
28988;SDS011;16089;59.952;10.818;2024-01-15T07:31:59;3.30;;;0.40;;
28988;SDS011;16089;59.952;10.818;2024-01-15T07:34:26;0.85;;;0.30;;
28988;SDS011;16089;59.952;10.818;2024-01-15T07:36:52;1.20;;;0.40;;
28988;SDS011;16089;59.952;10.818;2024-01-15T07:39:19;1.80;;;0.30;;
28988;SDS011;16089;59.952;10.818;2024-01-15T07:41:45;0.90;;;0.35;;
28988;SDS011;16089;59.952;10.818;2024-01-15T07:44:12;1.90;;;0.40;;
28988;SDS011;16089;59.952;10.818;2024-01-15T07:46:39;1.17;;;0.40;;
28988;SDS011;16089;59.952;10.818;2024-01-15T07:49:07;2.13;;;0.50;;
28988;SDS011;16089;59.952;10.818;2024-01-15T07:51:34;2.25;;;0.40;;
28988;SDS011;16089;59.952;10.818;2024-01-15T07:54:00;0.73;;;0.30;;
28988;SDS011;16089;59.952;10.818;2024-01-15T07:56:27;0.82;;;0.50;;
28988;SDS011;16089;59.952;10.818;2024-01-15T07:58:53;1.70;;;0.40;;
28988;SDS011;16089;59.952;10.818;2024-01-15T08:01:20;0.65;;;0.30;;
28988;SDS011;16089;59.952;10.818;2024-01-15T08:03:47;1.52;;;0.40;;
28988;SDS011;16089;59.952;10.818;2024-01-15T08:06:14;2.63;;;0.50;;
28988;SDS011;16089;59.952;10.818;2024-01-15T08:08:41;0.25;;;0.25;;
28988;SDS011;16089;59.952;10.818;2024-01-15T08:11:08;0.85;;;0.47;;
28988;SDS011;16089;59.952;10.818;2024-01-15T08:13:34;0.80;;;0.30;;
28988;SDS011;16089;59.952;10.818;2024-01-15T08:16:01;0.80;;;0.30;;
28988;SDS011;16089;59.952;10.818;2024-01-15T08:18:27;2.15;;;0.77;;
28988;SDS011;16089;59.952;10.818;2024-01-15T08:20:54;3.13;;;0.50;;
28988;SDS011;16089;59.952;10.818;2024-01-15T08:23:22;0.90;;;0.38;;
28988;SDS011;16089;59.952;10.818;2024-01-15T08:25:49;3.00;;;0.60;;
28988;SDS011;16089;59.952;10.818;2024-01-15T08:28:17;0.73;;;0.40;;
28988;SDS011;16089;59.952;10.818;2024-01-15T08:30:44;0.73;;;0.47;;
28988;SDS011;16089;59.952;10.818;2024-01-15T08:33:10;0.93;;;0.40;;
28988;SDS011;16089;59.952;10.818;2024-01-15T08:35:38;0.45;;;0.35;;
28988;SDS011;16089;59.952;10.818;2024-01-15T08:38:04;1.75;;;0.40;;
28988;SDS011;16089;59.952;10.818;2024-01-15T08:40:32;0.55;;;0.40;;
28988;SDS011;16089;59.952;10.818;2024-01-15T08:42:59;0.30;;;0.30;;
28988;SDS011;16089;59.952;10.818;2024-01-15T08:45:27;0.47;;;0.30;;
28988;SDS011;16089;59.952;10.818;2024-01-15T08:47:53;1.10;;;0.30;;
28988;SDS011;16089;59.952;10.818;2024-01-15T08:50:20;0.57;;;0.40;;
28988;SDS011;16089;59.952;10.818;2024-01-15T08:52:46;0.77;;;0.35;;
28988;SDS011;16089;59.952;10.818;2024-01-15T08:55:13;1.02;;;0.40;;
28988;SDS011;16089;59.952;10.818;2024-01-15T08:57:41;0.45;;;0.30;;
28988;SDS011;16089;59.952;10.818;2024-01-15T09:00:08;0.63;;;0.35;;
28988;SDS011;16089;59.952;10.818;2024-01-15T09:02:35;0.47;;;0.30;;
28988;SDS011;16089;59.952;10.818;2024-01-15T09:05:02;0.52;;;0.30;;
28988;SDS011;16089;59.952;10.818;2024-01-15T09:07:29;0.95;;;0.47;;
28988;SDS011;16089;59.952;10.818;2024-01-15T09:09:56;1.45;;;0.40;;
28988;SDS011;16089;59.952;10.818;2024-01-15T09:12:24;0.50;;;0.30;;
28988;SDS011;16089;59.952;10.818;2024-01-15T09:14:52;0.65;;;0.32;;
28988;SDS011;16089;59.952;10.818;2024-01-15T09:17:19;1.48;;;0.40;;
28988;SDS011;16089;59.952;10.818;2024-01-15T09:19:45;0.32;;;0.30;;
28988;SDS011;16089;59.952;10.818;2024-01-15T09:22:12;2.20;;;0.65;;
28988;SDS011;16089;59.952;10.818;2024-01-15T09:24:40;1.40;;;0.40;;
28988;SDS011;16089;59.952;10.818;2024-01-15T09:27:06;1.02;;;0.40;;
28988;SDS011;16089;59.952;10.818;2024-01-15T09:29:33;2.22;;;0.50;;
28988;SDS011;16089;59.952;10.818;2024-01-15T09:32:03;0.93;;;0.38;;
28988;SDS011;16089;59.952;10.818;2024-01-15T09:34:30;1.92;;;0.65;;
28988;SDS011;16089;59.952;10.818;2024-01-15T09:36:56;0.68;;;0.30;;
28988;SDS011;16089;59.952;10.818;2024-01-15T09:39:25;0.77;;;0.25;;
28988;SDS011;16089;59.952;10.818;2024-01-15T09:41:51;1.40;;;0.50;;
28988;SDS011;16089;59.952;10.818;2024-01-15T09:44:18;4.32;;;0.80;;
28988;SDS011;16089;59.952;10.818;2024-01-15T09:46:45;2.00;;;1.00;;
28988;SDS011;16089;59.952;10.818;2024-01-15T09:49:13;3.10;;;0.80;;
28988;SDS011;16089;59.952;10.818;2024-01-15T09:51:39;2.05;;;0.50;;
28988;SDS011;16089;59.952;10.818;2024-01-15T09:54:06;1.20;;;0.35;;
28988;SDS011;16089;59.952;10.818;2024-01-15T09:56:33;2.30;;;0.70;;
28988;SDS011;16089;59.952;10.818;2024-01-15T09:59:00;1.23;;;0.68;;
28988;SDS011;16089;59.952;10.818;2024-01-15T10:01:27;2.80;;;0.68;;
28988;SDS011;16089;59.952;10.818;2024-01-15T10:03:54;1.75;;;0.40;;
28988;SDS011;16089;59.952;10.818;2024-01-15T10:06:22;3.33;;;0.40;;
28988;SDS011;16089;59.952;10.818;2024-01-15T10:08:49;0.88;;;0.30;;
28988;SDS011;16089;59.952;10.818;2024-01-15T10:11:15;3.00;;;0.50;;
28988;SDS011;16089;59.952;10.818;2024-01-15T10:13:43;0.47;;;0.30;;
28988;SDS011;16089;59.952;10.818;2024-01-15T10:16:09;0.88;;;0.47;;
28988;SDS011;16089;59.952;10.818;2024-01-15T10:18:36;0.98;;;0.50;;
28988;SDS011;16089;59.952;10.818;2024-01-15T10:21:04;3.17;;;0.43;;
28988;SDS011;16089;59.952;10.818;2024-01-15T10:23:33;0.35;;;0.30;;
28988;SDS011;16089;59.952;10.818;2024-01-15T10:26:01;2.40;;;0.40;;
28988;SDS011;16089;59.952;10.818;2024-01-15T10:28:27;0.93;;;0.40;;
28988;SDS011;16089;59.952;10.818;2024-01-15T10:30:56;0.50;;;0.30;;
28988;SDS011;16089;59.952;10.818;2024-01-15T10:33:23;1.13;;;0.40;;
28988;SDS011;16089;59.952;10.818;2024-01-15T10:35:50;1.77;;;0.30;;
28988;SDS011;16089;59.952;10.818;2024-01-15T10:38:20;0.38;;;0.30;;
28988;SDS011;16089;59.952;10.818;2024-01-15T10:40:48;4.25;;;0.50;;
28988;SDS011;16089;59.952;10.818;2024-01-15T10:43:17;1.17;;;0.35;;
28988;SDS011;16089;59.952;10.818;2024-01-15T10:45:44;0.93;;;0.40;;
28988;SDS011;16089;59.952;10.818;2024-01-15T10:48:10;2.47;;;0.60;;
28988;SDS011;16089;59.952;10.818;2024-01-15T10:50:37;1.10;;;0.40;;
28988;SDS011;16089;59.952;10.818;2024-01-15T10:53:04;7.20;;;0.95;;
28988;SDS011;16089;59.952;10.818;2024-01-15T10:55:31;3.30;;;0.30;;
28988;SDS011;16089;59.952;10.818;2024-01-15T10:58:00;0.77;;;0.30;;
28988;SDS011;16089;59.952;10.818;2024-01-15T11:00:27;1.25;;;0.40;;
28988;SDS011;16089;59.952;10.818;2024-01-15T11:02:53;0.85;;;0.30;;
28988;SDS011;16089;59.952;10.818;2024-01-15T11:05:21;2.60;;;0.40;;
28988;SDS011;16089;59.952;10.818;2024-01-15T11:07:48;1.45;;;0.60;;
28988;SDS011;16089;59.952;10.818;2024-01-15T11:12:56;2.25;;;0.73;;
28988;SDS011;16089;59.952;10.818;2024-01-15T11:15:24;0.93;;;0.47;;
28988;SDS011;16089;59.952;10.818;2024-01-15T11:17:57;7.43;;;4.07;;
28988;SDS011;16089;59.952;10.818;2024-01-15T11:20:24;5.20;;;2.85;;
28988;SDS011;16089;59.952;10.818;2024-01-15T11:22:50;4.75;;;2.60;;
28988;SDS011;16089;59.952;10.818;2024-01-15T11:25:18;1.80;;;0.90;;
28988;SDS011;16089;59.952;10.818;2024-01-15T11:27:45;1.58;;;0.77;;
28988;SDS011;16089;59.952;10.818;2024-01-15T11:30:16;2.85;;;0.82;;
28988;SDS011;16089;59.952;10.818;2024-01-15T11:32:44;4.80;;;0.40;;
28988;SDS011;16089;59.952;10.818;2024-01-15T11:35:11;0.82;;;0.32;;
28988;SDS011;16089;59.952;10.818;2024-01-15T11:40:38;2.53;;;0.40;;
28988;SDS011;16089;59.952;10.818;2024-01-15T11:43:07;0.47;;;0.28;;
28988;SDS011;16089;59.952;10.818;2024-01-15T11:45:34;2.47;;;0.55;;
28988;SDS011;16089;59.952;10.818;2024-01-15T11:48:12;0.47;;;0.25;;
28988;SDS011;16089;59.952;10.818;2024-01-15T11:50:39;0.80;;;0.28;;
28988;SDS011;16089;59.952;10.818;2024-01-15T11:53:08;1.15;;;0.32;;
28988;SDS011;16089;59.952;10.818;2024-01-15T11:55:36;3.25;;;0.43;;
28988;SDS011;16089;59.952;10.818;2024-01-15T11:58:06;4.03;;;0.68;;
28988;SDS011;16089;59.952;10.818;2024-01-15T12:00:33;2.33;;;0.40;;
28988;SDS011;16089;59.952;10.818;2024-01-15T12:03:00;2.40;;;0.50;;
28988;SDS011;16089;59.952;10.818;2024-01-15T12:05:28;1.33;;;0.35;;
28988;SDS011;16089;59.952;10.818;2024-01-15T12:07:55;0.73;;;0.28;;
28988;SDS011;16089;59.952;10.818;2024-01-15T12:10:22;1.08;;;0.40;;
28988;SDS011;16089;59.952;10.818;2024-01-15T12:12:58;0.85;;;0.40;;
28988;SDS011;16089;59.952;10.818;2024-01-15T12:15:26;0.47;;;0.22;;
28988;SDS011;16089;59.952;10.818;2024-01-15T12:17:54;1.85;;;0.30;;
28988;SDS011;16089;59.952;10.818;2024-01-15T12:20:20;2.45;;;0.60;;
28988;SDS011;16089;59.952;10.818;2024-01-15T12:22:49;1.63;;;0.32;;
28988;SDS011;16089;59.952;10.818;2024-01-15T12:25:15;2.00;;;0.70;;
28988;SDS011;16089;59.952;10.818;2024-01-15T12:27:42;2.92;;;0.40;;
28988;SDS011;16089;59.952;10.818;2024-01-15T12:30:10;4.57;;;0.60;;
28988;SDS011;16089;59.952;10.818;2024-01-15T12:32:37;3.22;;;1.70;;
28988;SDS011;16089;59.952;10.818;2024-01-15T12:35:04;3.42;;;0.70;;
28988;SDS011;16089;59.952;10.818;2024-01-15T12:37:30;3.83;;;1.02;;
28988;SDS011;16089;59.952;10.818;2024-01-15T12:39:59;3.15;;;0.57;;
28988;SDS011;16089;59.952;10.818;2024-01-15T12:42:27;2.40;;;0.40;;
28988;SDS011;16089;59.952;10.818;2024-01-15T12:44:56;0.85;;;0.32;;
28988;SDS011;16089;59.952;10.818;2024-01-15T12:47:23;3.40;;;0.30;;
28988;SDS011;16089;59.952;10.818;2024-01-15T12:49:51;2.25;;;0.30;;
28988;SDS011;16089;59.952;10.818;2024-01-15T12:52:19;3.38;;;0.30;;
28988;SDS011;16089;59.952;10.818;2024-01-15T12:54:46;1.23;;;0.38;;
28988;SDS011;16089;59.952;10.818;2024-01-15T12:57:14;1.58;;;0.40;;
28988;SDS011;16089;59.952;10.818;2024-01-15T12:59:40;1.73;;;0.30;;
28988;SDS011;16089;59.952;10.818;2024-01-15T13:02:07;0.77;;;0.30;;
28988;SDS011;16089;59.952;10.818;2024-01-15T13:04:34;2.40;;;0.30;;
28988;SDS011;16089;59.952;10.818;2024-01-15T13:07:00;3.60;;;0.30;;
28988;SDS011;16089;59.952;10.818;2024-01-15T13:09:27;0.85;;;0.30;;
28988;SDS011;16089;59.952;10.818;2024-01-15T13:11:54;2.55;;;0.60;;
28988;SDS011;16089;59.952;10.818;2024-01-15T13:14:22;1.15;;;0.30;;
28988;SDS011;16089;59.952;10.818;2024-01-15T13:16:49;2.58;;;0.30;;
28988;SDS011;16089;59.952;10.818;2024-01-15T13:19:16;1.05;;;0.32;;
28988;SDS011;16089;59.952;10.818;2024-01-15T13:21:44;1.55;;;0.30;;
28988;SDS011;16089;59.952;10.818;2024-01-15T13:24:10;2.55;;;0.40;;
28988;SDS011;16089;59.952;10.818;2024-01-15T13:26:37;1.48;;;0.30;;
28988;SDS011;16089;59.952;10.818;2024-01-15T13:29:04;0.88;;;0.40;;
28988;SDS011;16089;59.952;10.818;2024-01-15T13:31:32;1.17;;;0.30;;
28988;SDS011;16089;59.952;10.818;2024-01-15T13:33:59;1.00;;;0.40;;
28988;SDS011;16089;59.952;10.818;2024-01-15T13:36:25;1.10;;;0.43;;
28988;SDS011;16089;59.952;10.818;2024-01-15T13:38:52;2.20;;;0.45;;
28988;SDS011;16089;59.952;10.818;2024-01-15T13:41:19;1.48;;;0.40;;
28988;SDS011;16089;59.952;10.818;2024-01-15T13:43:48;1.90;;;0.40;;
28988;SDS011;16089;59.952;10.818;2024-01-15T13:46:15;3.40;;;0.40;;
28988;SDS011;16089;59.952;10.818;2024-01-15T13:48:43;0.98;;;0.50;;
28988;SDS011;16089;59.952;10.818;2024-01-15T13:51:10;3.92;;;0.50;;
28988;SDS011;16089;59.952;10.818;2024-01-15T13:53:37;1.25;;;0.35;;
28988;SDS011;16089;59.952;10.818;2024-01-15T13:56:04;1.30;;;0.32;;
28988;SDS011;16089;59.952;10.818;2024-01-15T13:58:31;1.35;;;0.30;;
28988;SDS011;16089;59.952;10.818;2024-01-15T14:00:57;1.83;;;0.50;;
28988;SDS011;16089;59.952;10.818;2024-01-15T14:03:24;4.80;;;0.60;;
28988;SDS011;16089;59.952;10.818;2024-01-15T14:05:52;2.00;;;0.50;;
28988;SDS011;16089;59.952;10.818;2024-01-15T14:08:19;2.10;;;1.20;;
28988;SDS011;16089;59.952;10.818;2024-01-15T14:10:45;1.20;;;0.70;;
28988;SDS011;16089;59.952;10.818;2024-01-15T14:13:12;5.57;;;0.80;;
28988;SDS011;16089;59.952;10.818;2024-01-15T14:15:38;1.65;;;0.85;;
28988;SDS011;16089;59.952;10.818;2024-01-15T14:18:05;2.50;;;1.33;;
28988;SDS011;16089;59.952;10.818;2024-01-15T14:20:32;3.67;;;1.15;;
28988;SDS011;16089;59.952;10.818;2024-01-15T14:23:00;4.03;;;0.88;;
28988;SDS011;16089;59.952;10.818;2024-01-15T14:25:27;1.50;;;0.45;;
28988;SDS011;16089;59.952;10.818;2024-01-15T14:27:54;1.25;;;0.57;;
28988;SDS011;16089;59.952;10.818;2024-01-15T14:30:20;2.75;;;0.50;;
28988;SDS011;16089;59.952;10.818;2024-01-15T14:32:47;2.35;;;0.40;;
28988;SDS011;16089;59.952;10.818;2024-01-15T14:35:13;3.05;;;0.70;;
28988;SDS011;16089;59.952;10.818;2024-01-15T14:37:40;1.95;;;0.68;;
28988;SDS011;16089;59.952;10.818;2024-01-15T14:40:08;3.95;;;0.65;;